Time;durP1;ratioP1;P1;durP2;ratioP2;P2;SDS_P1;SDS_P2;PMS_P1;PMS_P2;Temp;Humidity;BMP_temperature;BMP_pressure;BME280_temperature;BME280_humidity;BME280_pressure;Samples;Min_cycle;Max_cycle;Signal;HPM_P1;HPM_P2
2023/06/12 00:01:02;;;;;;;1999.90;999.90;;;22.50;70.80;;;;;;6764325;88;20275;-79
2023/06/12 00:11:09;;;;;;;1999.90;999.90;;;22.30;71.50;;;;;;6725580;88;20332;-80
2023/06/12 00:21:11;;;;;;;1999.90;999.90;;;21.80;73.40;;;;;;6714522;88;20191;-82
2023/06/12 00:31:12;;;;;;;1999.90;999.90;;;21.70;74.80;;;;;;6725055;88;20661;-81
2023/06/12 00:41:12;;;;;;;1999.90;999.90;;;21.50;75.60;;;;;;6756433;88;20240;-80
2023/06/12 00:51:13;;;;;;;1999.90;999.90;;;21.10;76.30;;;;;;6768816;88;20673;-81
2023/06/12 01:01:14;;;;;;;1999.90;999.90;;;20.90;78.30;;;;;;6767193;88;20198;-80
2023/06/12 01:11:17;;;;;;;1999.90;999.90;;;20.80;76.80;;;;;;6772006;88;20271;-81
2023/06/12 01:21:22;;;;;;;1999.90;999.90;;;20.70;77.40;;;;;;6768452;88;20250;-82
2023/06/12 01:31:45;;;;;;;1999.90;999.90;;;20.30;78.90;;;;;;6770932;88;20782;-81
2023/06/12 01:41:46;;;;;;;1999.90;999.90;;;20.10;82.00;;;;;;6759310;88;20213;-81
2023/06/12 01:51:47;;;;;;;1999.90;999.90;;;20.00;81.10;;;;;;6769830;88;20775;-82
2023/06/12 02:01:47;;;;;;;1999.90;999.90;;;19.80;82.20;;;;;;6767965;88;20196;-81
2023/06/12 02:11:49;;;;;;;1999.90;999.90;;;19.70;82.50;;;;;;6769184;88;20235;-82
2023/06/12 02:21:49;;;;;;;1999.90;999.90;;;19.50;83.30;;;;;;6772396;88;20222;-80
2023/06/12 02:41:53;;;;;;;1999.90;999.90;;;19.20;82.30;;;;;;6773808;87;22496;-79
2023/06/12 02:51:54;;;;;;;1999.90;999.90;;;19.00;82.50;;;;;;6760161;87;20218;-79
2023/06/12 03:01:55;;;;;;;1999.90;999.90;;;18.90;83.10;;;;;;6759649;87;20201;-80
2023/06/12 03:11:55;;;;;;;1999.90;999.90;;;18.50;84.90;;;;;;6765404;87;20188;-79
2023/06/12 03:21:56;;;;;;;1999.90;999.90;;;18.20;85.90;;;;;;6759924;88;20217;-79
2023/06/12 03:31:57;;;;;;;1999.90;999.90;;;18.20;88.30;;;;;;6760317;88;20195;-79
2023/06/12 03:41:57;;;;;;;1999.90;999.90;;;18.20;91.70;;;;;;6754638;87;20716;-78
2023/06/12 03:51:58;;;;;;;1999.90;999.90;;;18.00;96.20;;;;;;6756976;88;20352;-78
2023/06/12 04:01:59;;;;;;;1999.90;999.90;;;17.70;96.30;;;;;;6741155;88;20197;-79
2023/06/12 04:12:00;;;;;;;1999.90;999.90;;;17.60;98.20;;;;;;6747674;88;20853;-79
2023/06/12 04:22:01;;;;;;;1999.90;999.90;;;17.50;99.90;;;;;;6740436;88;20204;-79
2023/06/12 04:32:02;;;;;;;1999.90;999.90;;;17.40;99.90;;;;;;6740931;88;20172;-78
2023/06/12 04:42:03;;;;;;;1999.90;999.90;;;17.60;99.90;;;;;;6741216;88;20268;-79
2023/06/12 04:52:05;;;;;;;1999.90;999.90;;;17.70;99.90;;;;;;6744815;88;20396;-79
2023/06/12 05:02:09;;;;;;;1999.90;999.90;;;17.70;99.90;;;;;;6744415;88;20672;-79
2023/06/12 05:12:11;;;;;;;1999.90;999.90;;;17.90;99.90;;;;;;6743424;88;20218;-79
2023/06/12 05:22:11;;;;;;;1999.90;999.90;;;17.90;99.90;;;;;;6747266;88;20213;-82
2023/06/12 05:32:12;;;;;;;1999.90;999.90;;;18.20;99.90;;;;;;6757532;87;20251;-80
2023/06/12 05:42:13;;;;;;;1999.90;999.90;;;18.30;99.90;;;;;;6766469;88;20275;-81
2023/06/12 05:52:13;;;;;;;1999.90;999.90;;;18.70;99.90;;;;;;6751811;88;20763;-80
2023/06/12 06:02:14;;;;;;;1999.90;999.90;;;19.10;99.90;;;;;;6749000;88;20315;-81
2023/06/12 06:12:15;;;;;;;1999.90;999.90;;;20.00;99.90;;;;;;6750604;88;20197;-81
2023/06/12 06:22:17;;;;;;;1999.90;999.90;;;20.80;99.90;;;;;;6756106;88;20177;-79
2023/06/12 06:32:18;;;;;;;1999.90;999.90;;;21.70;97.90;;;;;;6751700;88;20212;-79
2023/06/12 06:42:18;;;;;;;1999.90;999.90;;;22.20;96.20;;;;;;6748383;88;20180;-79
2023/06/12 06:52:22;;;;;;;1999.90;999.90;;;23.00;95.50;;;;;;6747533;88;20704;-79
2023/06/12 07:02:22;;;;;;;1999.90;999.90;;;23.70;94.50;;;;;;6746827;88;20189;-80
2023/06/12 07:12:23;;;;;;;1999.90;999.90;;;24.60;92.40;;;;;;6749191;88;20552;-80
2023/06/12 07:22:23;;;;;;;1999.90;999.90;;;24.70;91.80;;;;;;6749566;88;20230;-81
2023/06/12 07:32:24;;;;;;;1999.90;999.90;;;24.20;91.30;;;;;;6752176;88;20193;-81
2023/06/12 07:42:25;;;;;;;1999.90;999.90;;;24.40;90.80;;;;;;6748315;88;20221;-82
2023/06/12 07:52:25;;;;;;;1999.90;999.90;;;24.40;90.80;;;;;;6748186;88;20212;-82
2023/06/12 08:02:28;;;;;;;1999.90;999.90;;;24.40;91.00;;;;;;6754662;88;20193;-81
2023/06/12 08:12:29;;;;;;;;;;;25.60;90.20;;;;;;6750633;88;20208;-82
2023/06/12 08:22:29;;;;;;;1999.90;999.90;;;26.10;90.00;;;;;;6754610;88;20069;-82
2023/06/12 08:42:51;;;;;;;1999.90;999.90;;;27.00;86.90;;;;;;6773520;87;20224;-79
2023/06/12 08:52:52;;;;;;;1999.90;999.90;;;27.90;85.60;;;;;;6769914;87;20205;-80
2023/06/12 09:02:53;;;;;;;1999.90;999.90;;;28.30;85.20;;;;;;6765924;87;20184;-79
2023/06/12 09:12:54;;;;;;;1999.90;999.90;;;29.60;82.80;;;;;;6753947;87;20268;-80
2023/06/12 09:22:58;;;;;;;1999.90;999.90;;;29.20;80.70;;;;;;6759781;88;20188;-79
2023/06/12 09:33:03;;;;;;;1999.90;999.90;;;29.20;79.80;;;;;;6760966;87;20324;-80
2023/06/12 09:43:04;;;;;;;1999.90;999.90;;;29.90;79.10;;;;;;6742708;88;20183;-79
2023/06/12 09:53:05;;;;;;;1999.90;999.90;;;30.50;76.00;;;;;;6742989;88;20192;-79
2023/06/12 10:03:10;;;;;;;1999.90;999.90;;;30.40;77.00;;;;;;6739768;88;20267;-80
2023/06/12 10:13:12;;;;;;;1999.90;999.90;;;30.00;72.30;;;;;;6743604;88;20189;-79
2023/06/12 10:23:13;;;;;;;1999.90;999.90;;;30.50;71.50;;;;;;6753024;88;20929;-79
2023/06/12 10:33:14;;;;;;;1999.90;999.90;;;30.10;71.40;;;;;;6759095;88;20228;-79
2023/06/12 10:43:20;;;;;;;1999.90;999.90;;;30.10;71.50;;;;;;6756378;88;20749;-79
2023/06/12 10:53:22;;;;;;;1999.90;999.90;;;30.50;72.40;;;;;;6756265;88;20196;-79
2023/06/12 11:03:25;;;;;;;1999.90;999.90;;;31.40;72.80;;;;;;6758448;88;20180;-80
2023/06/12 11:13:26;;;;;;;1999.90;999.90;;;32.30;69.60;;;;;;6748673;88;20188;-79
2023/06/12 11:23:28;;;;;;;1999.90;999.90;;;32.20;70.40;;;;;;6753550;88;20316;-79
2023/06/12 11:33:32;;;;;;;1999.90;999.90;;;32.30;70.40;;;;;;6746188;87;20201;-80
2023/06/12 11:43:32;;;;;;;1999.90;999.90;;;31.50;69.70;;;;;;6754966;88;20206;-80
2023/06/12 11:53:33;;;;;;;1999.90;999.90;;;32.80;67.40;;;;;;6744105;88;20176;-81
2023/06/12 12:03:37;;;;;;;1999.90;999.90;;;32.70;67.60;;;;;;6754686;87;20226;-81
2023/06/12 12:13:51;;;;;;;1999.90;999.90;;;33.20;66.60;;;;;;6746289;88;20204;-79
2023/06/12 12:23:53;;;;;;;1999.90;999.90;;;32.00;66.40;;;;;;6743543;88;20264;-80
2023/06/12 12:33:54;;;;;;;1999.90;999.90;;;32.30;67.00;;;;;;6748760;88;20205;-81
2023/06/12 12:43:54;;;;;;;1999.90;999.90;;;34.70;65.80;;;;;;6763122;88;20227;-80
2023/06/12 12:53:56;;;;;;;1999.90;999.90;;;33.90;64.50;;;;;;6763699;87;20280;-79
2023/06/12 13:03:57;;;;;;;1999.90;999.90;;;34.70;63.50;;;;;;6752968;88;20181;-79
2023/06/12 13:13:58;;;;;;;1999.90;999.90;;;32.90;63.70;;;;;;6746310;88;20216;-80
2023/06/12 13:23:59;;;;;;;1999.90;999.90;;;33.70;62.90;;;;;;6751976;87;20279;-79
2023/06/12 13:34:00;;;;;;;1999.90;999.90;;;33.40;63.40;;;;;;6760150;88;20184;-78
2023/06/12 13:44:00;;;;;;;;;;;32.60;62.20;;;;;;6762904;88;20211;-78
2023/06/12 13:54:02;;;;;;;1999.90;999.90;;;32.40;61.10;;;;;;6758628;88;20541;-79
2023/06/12 14:04:03;;;;;;;1999.90;999.90;;;33.50;60.10;;;;;;6760733;88;20220;-79
2023/06/12 14:14:03;;;;;;;;;;;32.40;59.20;;;;;;6761383;88;20261;-79
2023/06/12 14:24:04;;;;;;;1999.90;999.90;;;32.80;58.00;;;;;;6757453;88;20912;-79
2023/06/12 14:34:04;;;;;;;1999.90;999.90;;;32.30;58.70;;;;;;6761656;88;20782;-81
2023/06/12 14:44:05;;;;;;;1999.90;999.90;;;33.60;59.00;;;;;;6759790;88;21120;-80
2023/06/12 14:54:05;;;;;;;1999.90;999.90;;;33.20;57.50;;;;;;6758622;88;20209;-79
2023/06/12 15:04:06;;;;;;;1999.90;999.90;;;33.20;57.60;;;;;;6761610;87;20221;-80
2023/06/12 15:14:07;;;;;;;1999.90;999.90;;;33.80;57.70;;;;;;6758169;88;20260;-79
2023/06/12 15:24:28;;;;;;;1999.90;999.90;;;33.40;57.50;;;;;;6786543;78;20228;-79
2023/06/12 15:34:28;;;;;;;1999.90;999.90;;;32.40;57.70;;;;;;6747531;88;20510;-82
2023/06/12 15:44:29;;;;;;;1999.90;999.90;;;31.80;57.40;;;;;;6752850;88;20647;-81
2023/06/12 15:54:30;;;;;;;1999.90;999.90;;;32.60;57.00;;;;;;6755002;88;20227;-80
2023/06/12 16:04:30;;;;;;;;;;;33.10;57.30;;;;;;6758154;88;20192;-81
2023/06/12 16:14:31;;;;;;;1999.90;999.90;;;32.70;57.20;;;;;;6761797;88;20068;-81
2023/06/12 16:24:31;;;;;;;1999.90;999.90;;;32.20;57.60;;;;;;6765649;88;20184;-82
2023/06/12 16:34:32;;;;;;;1999.90;999.90;;;31.50;57.90;;;;;;6766366;88;20218;-83
2023/06/12 16:44:34;;;;;;;1999.90;999.90;;;31.30;57.90;;;;;;6765943;88;20169;-82
2023/06/12 16:54:35;;;;;;;1999.90;999.90;;;30.80;57.70;;;;;;6767071;88;20152;-81
2023/06/12 17:04:35;;;;;;;1999.90;999.90;;;30.80;58.20;;;;;;6760849;87;20183;-79
2023/06/12 17:14:37;;;;;;;1999.90;999.90;;;30.80;58.30;;;;;;6753331;88;20192;-79
2023/06/12 17:24:38;;;;;;;1999.90;999.90;;;31.30;58.80;;;;;;6756271;88;20189;-78
2023/06/12 17:34:40;;;;;;;1999.90;999.90;;;30.90;56.90;;;;;;6763714;87;20184;-79
2023/06/12 17:44:43;;;;;;;1999.90;999.90;;;30.40;57.80;;;;;;6746714;88;20732;-78
2023/06/12 17:54:44;;;;;;;1999.90;999.90;;;29.90;58.10;;;;;;6745861;88;20328;-76
2023/06/12 18:04:45;;;;;;;1999.90;999.90;;;29.80;58.50;;;;;;6741906;88;20237;-79
2023/06/12 18:14:46;;;;;;;1999.90;999.90;;;29.70;58.80;;;;;;6742013;88;20289;-80
2023/06/12 18:24:46;;;;;;;1999.90;999.90;;;29.40;58.10;;;;;;6746595;88;20241;-80
2023/06/12 18:34:48;;;;;;;1999.90;999.90;;;29.10;59.20;;;;;;6739123;88;20201;-78
2023/06/12 18:44:48;;;;;;;1999.90;999.90;;;28.60;59.20;;;;;;6734348;87;20643;-79
2023/06/12 18:54:49;;;;;;;1999.90;999.90;;;28.30;61.20;;;;;;6733492;88;20184;-79
2023/06/12 19:04:50;;;;;;;1999.90;999.90;;;28.00;61.90;;;;;;6732434;88;20218;-77
2023/06/12 19:14:51;;;;;;;1999.90;999.90;;;27.70;63.80;;;;;;6730792;88;21229;-79
2023/06/12 19:24:51;;;;;;;1999.90;999.90;;;27.20;64.60;;;;;;6734807;88;20685;-78
2023/06/12 19:34:52;;;;;;;1999.90;999.90;;;26.90;65.20;;;;;;6736845;88;20616;-80
2023/06/12 19:44:52;;;;;;;1999.90;999.90;;;26.60;65.70;;;;;;6730385;88;20234;-79
2023/06/12 19:54:53;;;;;;;1999.90;999.90;;;26.30;66.60;;;;;;6740445;88;20646;-80
2023/06/12 20:04:54;;;;;;;1999.90;999.90;;;26.10;67.10;;;;;;6747401;88;20184;-80
2023/06/12 20:14:54;;;;;;;1999.90;999.90;;;25.90;67.50;;;;;;6750923;88;20189;-79
2023/06/12 20:24:55;;;;;;;1999.90;999.90;;;25.60;68.50;;;;;;6741390;88;20231;-78
2023/06/12 20:34:55;;;;;;;1999.90;999.90;;;25.20;69.60;;;;;;6738651;88;20219;-78
2023/06/12 20:55:58;;;;;;;1999.90;999.90;;;24.80;70.00;;;;;;6760666;87;20552;-79
2023/06/12 21:05:59;;;;;;;1999.90;999.90;;;24.50;69.70;;;;;;6749995;88;20231;-79
2023/06/12 21:15:59;;;;;;;1999.90;999.90;;;24.40;68.80;;;;;;6742985;88;20326;-82
2023/06/12 21:26:00;;;;;;;1999.90;999.90;;;24.30;68.00;;;;;;6752302;88;20251;-81
2023/06/12 21:36:00;;;;;;;1999.90;999.90;;;24.20;67.40;;;;;;6757939;88;20656;-81
2023/06/12 21:46:01;;;;;;;1999.90;999.90;;;23.90;67.40;;;;;;6753136;88;20281;-80
2023/06/12 21:56:02;;;;;;;1999.90;999.90;;;23.90;66.80;;;;;;6755172;88;20189;-80
2023/06/12 22:06:03;;;;;;;1999.90;999.90;;;23.80;66.50;;;;;;6750324;88;20522;-80
2023/06/12 22:16:04;;;;;;;1999.90;999.90;;;23.60;66.40;;;;;;6750727;88;20193;-79
2023/06/12 22:26:06;;;;;;;1999.90;999.90;;;23.40;66.20;;;;;;6750455;88;20205;-79
2023/06/12 22:36:07;;;;;;;1999.90;999.90;;;23.20;66.40;;;;;;6756404;88;20236;-81
2023/06/12 22:46:07;;;;;;;1999.90;999.90;;;23.10;66.10;;;;;;6731147;88;20307;-81
2023/06/12 22:56:08;;;;;;;1999.90;999.90;;;23.00;66.50;;;;;;6726360;88;20682;-80
2023/06/12 23:06:10;;;;;;;1999.90;999.90;;;22.80;66.50;;;;;;6738863;88;20269;-80
2023/06/12 23:16:14;;;;;;;1999.90;999.90;;;22.50;66.70;;;;;;6748789;88;20457;-81
2023/06/12 23:26:15;;;;;;;1999.90;999.90;;;22.30;67.50;;;;;;6729909;88;20656;-81
2023/06/12 23:36:15;;;;;;;1999.90;999.90;;;22.10;67.50;;;;;;6738271;88;20212;-79
2023/06/12 23:46:16;;;;;;;1999.90;999.90;;;22.00;68.20;;;;;;6744124;88;20283;-79
2023/06/12 23:56:20;;;;;;;1999.90;999.90;;;21.90;67.70;;;;;;6724562;88;20182;-79
